Airfield :
LOGIN :

Register | Disclaimer

   EN    FR    IT 

 










Legend :    VFR   Marginal VFR   IFR   Intensive IFR   Very Intensive IFR
Visi :
Ceiling :
>= 8 km
>= 3000ft
5 to 8 km
1000 to 3000 ft
1500m to 5 km
500 to 1000 ft
800 to 1500m
200 to 500 ft
< 800m
< 200 ft
Symbols :   Thunderstorms  Fog  Heavy snow  Heavy precipitations  Wind > 20 kt
SIGMETs :     Misc.  Thunderstorms  Icing  Turbulence  Mountain Waves  Volcanic Ashes







- Airport Elevation : 326 ft
- IATA code : LCG
- Download approach charts


LECO - A Coruna

CURRENT METAR :
  • 202000Z 03004KT 350V070 9999 FEW012 SCT016 19/17 Q1021 NOSIG

EXPIRED METARs :
  • 201930Z 02003KT 330V070 9999 FEW012 19/17 Q1021 NOSIG
  • 201900Z 01005KT 310V070 9999 FEW012 SCT015 20/17 Q1021 NOSIG
  • 201830Z 02006KT 340V060 9999 SCT015 SCT022 20/16 Q1020 NOSIG
  • 201800Z 36007KT 320V060 9999 FEW013 SCT025 20/16 Q1020 NOSIG
  • 201730Z 01006KT 330V070 9999 FEW020 22/16 Q1020 NOSIG

TAF TAF LECO
Valid from the 20 at 21:00 until the 21 at 21:00 UTC


202000Z 2021/2121 05006KT 9999 SCT012 TX23/2115Z TN15/2102Z
PROB30
TEMPO 2021/2024 BKN012
BECMG 2023/2102 3000 BR
TEMPO 2100/2107 1200 BR BCFG BKN005
PROB40
TEMPO 2102/2107 0500 FG BKN001
BECMG 2107/2109 8000 NSW
BECMG 2111/2113 35012KT
BECMG 2120/2121 VRB06KT
No reported NOTAMs for that airfield.



MET'MAP, your aeronautical weather chart ! - Copyright ORBIFLY December 2007 - Disclaimer

ORBIFLY MET'MAP TEAM :

Programming & Development : Alexandra Zaïnal
Concept & Development : Baudouin d'Aumeries
Co-Development & Prog : Marc-Olivier Méhu
Technical & hardware support : Manuel Goepfert

Contact : metmap@orbifly.com




SOURCES & CREDITS :

   NOAA